createdAt,value
2022-10-07T00:00:51.574Z,10.74
2022-10-07T00:03:21.701Z,10.60
2022-10-07T00:06:00.653Z,10.66
2022-10-07T00:08:28.517Z,10.70
2022-10-07T00:10:56.595Z,10.70
2022-10-07T00:13:24.445Z,10.82
2022-10-07T00:15:52.195Z,10.73
2022-10-07T00:18:21.313Z,10.61
2022-10-07T00:20:49.385Z,10.38
2022-10-07T00:23:17.153Z,10.41
2022-10-07T00:25:44.885Z,10.50
2022-10-07T00:28:12.743Z,10.63
2022-10-07T00:30:40.766Z,10.72
2022-10-07T00:33:08.519Z,10.67
2022-10-07T00:35:37.722Z,10.50
2022-10-07T00:38:06.761Z,10.56
2022-10-07T00:40:34.546Z,10.64
2022-10-07T00:43:20.383Z,10.58
2022-10-07T00:45:48.574Z,10.65
2022-10-07T00:48:19.814Z,10.41
2022-10-07T00:50:50.253Z,10.51
2022-10-07T00:53:18.235Z,10.47
2022-10-07T00:55:46.110Z,10.54
2022-10-07T00:58:14.199Z,10.53
2022-10-07T01:00:42.498Z,10.44
2022-10-07T01:03:10.297Z,10.39
2022-10-07T01:05:38.096Z,10.43
2022-10-07T01:08:07.251Z,10.41
2022-10-07T01:10:40.636Z,10.57
2022-10-07T01:13:14.695Z,10.50
2022-10-07T01:15:49.794Z,10.42
2022-10-07T01:18:21.218Z,10.43
2022-10-07T01:20:54.568Z,10.55
2022-10-07T01:23:52.972Z,10.35
2022-10-07T01:26:47.233Z,10.38
2022-10-07T01:29:16.712Z,10.47
2022-10-07T01:31:48.190Z,10.49
2022-10-07T01:34:16.509Z,10.49
2022-10-07T01:36:51.859Z,10.41
2022-10-07T01:39:23.677Z,10.44
2022-10-07T01:41:54.075Z,10.42
2022-10-07T01:44:22.169Z,10.47
2022-10-07T01:46:50.850Z,10.58
2022-10-07T01:49:18.861Z,10.53
2022-10-07T01:51:52.567Z,10.65
2022-10-07T01:54:26.351Z,10.49
2022-10-07T01:57:05.111Z,10.51
2022-10-07T02:00:05.454Z,10.48
2022-10-07T02:02:52.023Z,10.52
2022-10-07T02:05:27.977Z,10.65
2022-10-07T02:08:06.718Z,10.67
2022-10-07T02:10:38.605Z,10.62
2022-10-07T02:13:12.340Z,10.71
2022-10-07T02:15:46.591Z,10.76
2022-10-07T02:18:17.607Z,10.64
2022-10-07T02:20:47.612Z,10.77
2022-10-07T02:23:16.861Z,10.78
2022-10-07T02:25:47.766Z,10.68
2022-10-07T02:28:19.754Z,10.75
2022-10-07T02:30:49.529Z,10.62
2022-10-07T02:33:18.521Z,10.74
2022-10-07T02:35:51.104Z,10.81
2022-10-07T02:38:19.483Z,10.83
2022-10-07T02:40:59.673Z,10.81
2022-10-07T02:43:31.347Z,10.88
2022-10-07T02:46:04.490Z,10.99
2022-10-07T02:48:33.919Z,10.86
2022-10-07T02:51:05.372Z,10.85
2022-10-07T02:53:33.977Z,10.65
2022-10-07T02:56:03.637Z,10.82
2022-10-07T02:58:33.029Z,10.87
2022-10-07T03:01:01.630Z,10.92
2022-10-07T03:03:30.319Z,10.89
2022-10-07T03:06:04.809Z,10.89
2022-10-07T03:08:33.138Z,10.85
2022-10-07T03:11:01.867Z,10.87
2022-10-07T03:13:31.130Z,10.87
2022-10-07T03:16:04.057Z,10.92
2022-10-07T03:18:32.523Z,10.92
2022-10-07T03:21:17.069Z,10.90
2022-10-07T03:23:45.594Z,10.97
2022-10-07T03:26:13.736Z,10.96
2022-10-07T03:28:41.556Z,10.80
2022-10-07T03:31:12.120Z,10.86
2022-10-07T03:33:45.620Z,10.94
2022-10-07T03:36:13.611Z,10.85
2022-10-07T03:38:43.885Z,10.75
2022-10-07T03:41:12.736Z,10.91
2022-10-07T03:43:40.883Z,10.72
2022-10-07T03:46:11.865Z,10.76
2022-10-07T03:48:41.243Z,10.74
2022-10-07T03:51:09.091Z,10.86
2022-10-07T03:53:39.120Z,10.71
2022-10-07T03:56:07.129Z,10.77
2022-10-07T03:58:36.280Z,10.82
2022-10-07T04:01:08.030Z,10.75
2022-10-07T04:03:39.168Z,10.70
2022-10-07T04:06:07.342Z,10.75
2022-10-07T04:08:36.349Z,10.63
2022-10-07T04:11:05.106Z,10.70
2022-10-07T04:13:35.046Z,10.71
2022-10-07T04:16:07.455Z,10.75
2022-10-07T04:18:35.395Z,10.68
2022-10-07T04:21:05.728Z,10.59
2022-10-07T04:24:20.880Z,10.76
2022-10-07T04:26:48.756Z,10.71
2022-10-07T04:29:16.645Z,10.77
2022-10-07T04:31:44.579Z,10.84
2022-10-07T04:34:12.673Z,10.87
2022-10-07T04:36:43.933Z,10.79
2022-10-07T04:39:14.839Z,10.56
2022-10-07T04:41:49.462Z,10.67
2022-10-07T04:44:21.977Z,10.60
2022-10-07T04:46:58.122Z,10.49
2022-10-07T04:49:28.076Z,10.75
2022-10-07T04:51:58.374Z,10.70
2022-10-07T04:54:30.336Z,10.66
2022-10-07T04:56:58.043Z,10.54
2022-10-07T04:59:29.937Z,10.63
2022-10-07T05:01:58.477Z,10.73
2022-10-07T05:04:27.692Z,10.81
2022-10-07T05:06:56.009Z,10.44
2022-10-07T05:09:26.414Z,10.51
2022-10-07T05:11:55.661Z,10.45
2022-10-07T05:14:24.197Z,10.48
2022-10-07T05:16:53.942Z,10.50
2022-10-07T05:19:25.858Z,10.51
2022-10-07T05:21:54.885Z,10.29
2022-10-07T05:24:22.985Z,10.32
2022-10-07T05:26:52.934Z,10.53
2022-10-07T05:29:20.709Z,10.53
2022-10-07T05:31:51.933Z,10.83
2022-10-07T05:34:23.206Z,10.75
2022-10-07T05:36:51.054Z,10.79
2022-10-07T05:39:18.857Z,10.83
2022-10-07T05:42:13.398Z,10.49
2022-10-07T05:44:46.201Z,10.59
2022-10-07T05:47:14.305Z,10.68
2022-10-07T05:49:43.116Z,10.80
2022-10-07T05:52:10.974Z,10.41
2022-10-07T05:54:39.672Z,10.58
2022-10-07T05:57:08.818Z,10.55
2022-10-07T05:59:37.977Z,10.69
2022-10-07T06:02:05.835Z,10.91
2022-10-07T06:04:34.334Z,11.04
2022-10-07T06:07:04.026Z,10.83
2022-10-07T06:09:49.589Z,11.00
2022-10-07T06:12:36.290Z,11.47
2022-10-07T06:15:11.018Z,11.70
2022-10-07T06:17:45.560Z,11.77
2022-10-07T06:20:16.354Z,11.84
2022-10-07T06:22:45.484Z,11.96
2022-10-07T06:25:15.254Z,11.70
2022-10-07T06:27:45.073Z,11.16
2022-10-07T06:30:16.759Z,11.39
2022-10-07T06:32:44.836Z,11.65
2022-10-07T06:35:12.690Z,12.05
2022-10-07T06:37:40.600Z,12.11
2022-10-07T06:40:11.846Z,12.31
2022-10-07T06:42:40.065Z,12.53
2022-10-07T06:45:26.374Z,12.53
2022-10-07T06:47:55.102Z,12.63
2022-10-07T06:50:24.057Z,12.78
2022-10-07T06:52:51.826Z,12.67
2022-10-07T06:55:19.603Z,12.97
2022-10-07T06:57:48.069Z,12.44
2022-10-07T07:00:19.393Z,12.42
2022-10-07T07:02:49.086Z,12.29
2022-10-07T07:05:17.334Z,11.95
2022-10-07T07:07:47.324Z,12.21
2022-10-07T07:10:15.925Z,12.67
2022-10-07T07:12:47.625Z,12.73
2022-10-07T07:15:15.827Z,13.02
2022-10-07T07:17:44.391Z,13.38
2022-10-07T07:20:14.357Z,13.72
2022-10-07T07:22:43.296Z,13.95
2022-10-07T07:25:11.826Z,13.81
2022-10-07T07:27:40.074Z,13.65
2022-10-07T07:30:10.447Z,13.38
2022-10-07T07:32:38.324Z,13.40
2022-10-07T07:35:07.164Z,13.25
2022-10-07T07:37:36.738Z,13.36
2022-10-07T07:40:04.986Z,13.10
2022-10-07T07:42:34.802Z,13.76
2022-10-07T07:45:02.895Z,13.80
2022-10-07T07:47:35.553Z,13.84
2022-10-07T07:50:04.992Z,14.23
2022-10-07T07:52:34.787Z,14.17
2022-10-07T07:55:05.991Z,14.20
2022-10-07T07:57:33.799Z,14.28
2022-10-07T08:00:07.471Z,14.62
2022-10-07T08:02:41.903Z,15.12
2022-10-07T08:05:13.194Z,15.43
2022-10-07T08:07:41.457Z,15.38
2022-10-07T08:10:12.205Z,15.85
2022-10-07T08:12:40.342Z,16.02
2022-10-07T08:15:10.728Z,15.76
2022-10-07T08:17:39.153Z,15.66
2022-10-07T08:20:10.557Z,15.37
2022-10-07T08:22:38.709Z,15.47
2022-10-07T08:25:07.570Z,15.48
2022-10-07T08:27:37.673Z,15.66
2022-10-07T08:30:07.133Z,15.78
2022-10-07T08:32:35.033Z,15.87
2022-10-07T08:35:02.800Z,16.00
2022-10-07T08:37:30.550Z,16.31
2022-10-07T08:39:58.322Z,16.42
2022-10-07T08:42:29.001Z,16.14
2022-10-07T08:44:58.113Z,16.00
2022-10-07T08:47:30.352Z,16.43
2022-10-07T08:50:05.115Z,16.32
2022-10-07T08:52:48.663Z,16.93
2022-10-07T08:55:19.762Z,16.93
2022-10-07T08:57:54.793Z,16.77
2022-10-07T09:00:24.841Z,16.77
2022-10-07T09:03:08.040Z,16.64
2022-10-07T09:05:39.080Z,16.99
2022-10-07T09:08:13.336Z,17.45
2022-10-07T09:10:43.643Z,17.10
2022-10-07T09:13:13.956Z,17.01
2022-10-07T09:16:01.073Z,17.09
2022-10-07T09:18:32.294Z,17.15
2022-10-07T09:21:00.968Z,17.14
2022-10-07T09:23:31.605Z,17.42
2022-10-07T09:25:59.465Z,17.74
2022-10-07T09:28:29.937Z,17.67
2022-10-07T09:30:59.789Z,17.78
2022-10-07T09:33:29.783Z,17.79
2022-10-07T09:35:59.097Z,17.41
2022-10-07T09:38:31.938Z,17.53
2022-10-07T09:41:19.438Z,17.15
2022-10-07T09:44:02.714Z,17.52
2022-10-07T09:46:37.725Z,17.58
2022-10-07T09:49:07.178Z,17.59
2022-10-07T09:51:39.580Z,17.43
2022-10-07T09:54:18.502Z,17.86
2022-10-07T09:56:48.201Z,17.98
2022-10-07T09:59:22.157Z,17.79
2022-10-07T10:01:53.669Z,17.67
2022-10-07T10:04:26.176Z,17.65
2022-10-07T10:07:02.172Z,17.79
2022-10-07T10:09:30.664Z,18.30
2022-10-07T10:12:04.096Z,18.07
2022-10-07T10:14:38.686Z,17.90
2022-10-07T10:17:22.239Z,18.23
2022-10-07T10:19:50.108Z,18.55
2022-10-07T10:22:26.834Z,18.30
2022-10-07T10:25:12.977Z,18.65
2022-10-07T10:27:48.065Z,18.94
2022-10-07T10:30:20.823Z,19.35
2022-10-07T10:33:04.124Z,18.90
2022-10-07T10:35:33.349Z,19.22
2022-10-07T10:38:14.162Z,19.33
2022-10-07T10:40:43.029Z,18.93
2022-10-07T10:43:23.175Z,18.35
2022-10-07T10:46:04.865Z,18.48
2022-10-07T10:48:47.196Z,18.87
2022-10-07T10:51:32.437Z,18.75
2022-10-07T10:54:11.705Z,20.14
2022-10-07T10:56:43.168Z,20.95
2022-10-07T10:59:23.179Z,20.34
2022-10-07T11:01:56.666Z,20.33
2022-10-07T11:04:34.526Z,19.78
2022-10-07T11:07:06.228Z,19.69
2022-10-07T11:09:39.600Z,19.68
2022-10-07T11:12:16.959Z,19.84
2022-10-07T11:14:48.796Z,20.43
2022-10-07T11:17:17.304Z,20.50
2022-10-07T11:19:53.367Z,19.80
2022-10-07T11:22:29.243Z,19.94
2022-10-07T11:25:00.199Z,19.92
2022-10-07T11:27:29.369Z,19.44
2022-10-07T11:30:02.367Z,19.53
2022-10-07T11:32:32.662Z,18.89
2022-10-07T11:35:13.838Z,19.06
2022-10-07T11:37:44.572Z,19.71
2022-10-07T11:40:12.459Z,19.18
2022-10-07T11:42:43.057Z,19.42
2022-10-07T11:45:13.197Z,19.04
2022-10-07T11:47:43.826Z,19.59
2022-10-07T11:50:16.906Z,19.36
2022-10-07T11:52:46.901Z,19.70
2022-10-07T11:55:21.489Z,19.60
2022-10-07T11:57:54.162Z,19.97
2022-10-07T12:00:26.765Z,20.54
2022-10-07T12:02:55.516Z,20.17
2022-10-07T12:06:05.964Z,19.82
2022-10-07T12:08:38.605Z,19.74
2022-10-07T12:11:42.190Z,19.76
2022-10-07T12:14:36.495Z,19.95
2022-10-07T12:17:22.763Z,19.81
2022-10-07T12:20:24.089Z,20.36
2022-10-07T12:23:38.660Z,20.49
2022-10-07T12:26:50.248Z,20.63
2022-10-07T12:29:58.603Z,19.90
2022-10-07T12:33:00.824Z,19.47
2022-10-07T12:35:42.090Z,20.36
2022-10-07T12:38:15.396Z,20.10
2022-10-07T12:40:48.778Z,19.93
2022-10-07T12:43:25.561Z,20.60
2022-10-07T12:45:53.984Z,20.30
2022-10-07T12:48:23.406Z,20.38
2022-10-07T12:50:53.146Z,20.03
2022-10-07T12:53:26.166Z,20.05
2022-10-07T12:55:56.352Z,19.91
2022-10-07T12:59:02.082Z,20.19
2022-10-07T13:01:41.159Z,20.47
2022-10-07T13:04:29.770Z,20.18
2022-10-07T13:07:28.309Z,19.98
2022-10-07T13:10:23.470Z,20.22
2022-10-07T13:12:53.383Z,20.61
2022-10-07T13:15:32.383Z,20.35
2022-10-07T13:18:08.595Z,19.98
2022-10-07T13:20:43.037Z,20.41
2022-10-07T13:23:16.467Z,20.50
2022-10-07T13:25:46.602Z,20.78
2022-10-07T13:28:17.490Z,20.41
2022-10-07T13:30:46.780Z,20.68
2022-10-07T13:33:24.303Z,20.34
2022-10-07T13:35:53.383Z,20.50
2022-10-07T13:38:28.421Z,20.23
2022-10-07T13:41:03.315Z,20.48
2022-10-07T13:43:33.290Z,20.72
2022-10-07T13:46:01.914Z,22.04
2022-10-07T13:48:34.264Z,21.71
2022-10-07T13:51:02.801Z,21.02
2022-10-07T13:53:32.153Z,21.71
2022-10-07T13:56:18.725Z,21.29
2022-10-07T13:58:48.149Z,21.08
2022-10-07T14:01:16.446Z,21.35
2022-10-07T14:04:26.169Z,20.85
2022-10-07T14:06:57.694Z,21.14
2022-10-07T14:09:35.664Z,22.81
2022-10-07T14:12:06.823Z,23.52
2022-10-07T14:14:37.822Z,23.12
2022-10-07T14:17:10.542Z,26.69
2022-10-07T14:19:39.766Z,25.58
2022-10-07T14:22:19.264Z,25.33
2022-10-07T14:24:55.167Z,23.17
2022-10-07T14:27:42.838Z,23.23
2022-10-07T14:30:56.500Z,21.62
2022-10-07T14:33:58.229Z,20.63
2022-10-07T14:36:26.335Z,20.82
2022-10-07T14:38:58.050Z,20.97
2022-10-07T14:41:28.811Z,21.05
2022-10-07T14:43:59.887Z,21.18
2022-10-07T14:46:29.665Z,20.50
2022-10-07T14:48:57.548Z,20.29
2022-10-07T14:51:26.906Z,19.73
2022-10-07T14:53:56.946Z,19.71
2022-10-07T14:56:27.282Z,20.04
2022-10-07T14:58:56.170Z,20.08
2022-10-07T15:01:24.347Z,20.06
2022-10-07T15:03:53.659Z,20.62
2022-10-07T15:06:21.713Z,20.27
2022-10-07T15:08:50.445Z,19.68
2022-10-07T15:11:19.621Z,19.74
2022-10-07T15:13:48.487Z,19.69
2022-10-07T15:16:17.997Z,19.62
2022-10-07T15:18:51.802Z,19.84
2022-10-07T15:21:22.085Z,19.73
2022-10-07T15:23:53.080Z,19.99
2022-10-07T15:26:24.589Z,19.90
2022-10-07T15:28:54.467Z,20.03
2022-10-07T15:31:23.249Z,20.01
2022-10-07T15:33:51.197Z,19.50
2022-10-07T15:36:18.958Z,19.44
2022-10-07T15:38:48.079Z,19.20
2022-10-07T15:41:30.359Z,19.17
2022-10-07T15:43:59.207Z,19.34
2022-10-07T15:46:27.883Z,19.27
2022-10-07T15:48:56.489Z,19.27
2022-10-07T15:51:24.578Z,19.38
2022-10-07T15:53:54.345Z,19.30
2022-10-07T15:56:22.254Z,19.47
2022-10-07T15:58:50.030Z,19.46
2022-10-07T16:01:18.486Z,19.30
2022-10-07T16:03:48.041Z,19.32
2022-10-07T16:06:17.640Z,19.27
2022-10-07T16:08:45.605Z,18.71
2022-10-07T16:11:15.250Z,19.00
2022-10-07T16:13:44.536Z,19.06
2022-10-07T16:16:14.595Z,19.17
2022-10-07T16:18:43.814Z,19.03
2022-10-07T16:21:13.113Z,19.02
2022-10-07T16:23:42.381Z,19.07
2022-10-07T16:26:11.192Z,18.89
2022-10-07T16:28:59.211Z,18.94
2022-10-07T16:31:27.448Z,18.73
2022-10-07T16:33:56.095Z,18.95
2022-10-07T16:36:26.094Z,18.77
2022-10-07T16:38:54.916Z,18.77
2022-10-07T16:41:22.814Z,18.46
2022-10-07T16:43:51.861Z,18.44
2022-10-07T16:46:20.736Z,18.37
2022-10-07T16:48:50.895Z,18.43
2022-10-07T16:51:20.637Z,18.30
2022-10-07T16:53:49.960Z,18.16
2022-10-07T16:56:18.578Z,17.85
2022-10-07T16:58:47.179Z,17.80
2022-10-07T17:01:17.798Z,17.87
2022-10-07T17:03:46.765Z,17.76
2022-10-07T17:06:15.988Z,17.69
2022-10-07T17:08:48.038Z,17.57
2022-10-07T17:11:29.501Z,17.39
2022-10-07T17:13:58.456Z,17.41
2022-10-07T17:16:28.691Z,17.11
2022-10-07T17:18:56.927Z,17.09
2022-10-07T17:21:24.978Z,16.73
2022-10-07T17:23:52.781Z,16.77
2022-10-07T17:26:20.937Z,16.83
2022-10-07T17:28:49.702Z,16.72
2022-10-07T17:31:18.081Z,16.68
2022-10-07T17:33:47.361Z,16.61
2022-10-07T17:36:15.060Z,16.53
2022-10-07T17:38:44.305Z,16.48
2022-10-07T17:41:13.966Z,16.37
2022-10-07T17:43:41.930Z,16.22
2022-10-07T17:46:12.781Z,16.14
2022-10-07T17:48:43.159Z,16.07
2022-10-07T17:51:12.767Z,15.93
2022-10-07T17:53:40.844Z,15.91
2022-10-07T17:56:10.000Z,15.83
2022-10-07T17:58:38.305Z,15.72
2022-10-07T18:01:08.669Z,15.69
2022-10-07T18:03:37.962Z,15.71
2022-10-07T18:06:07.077Z,15.68
2022-10-07T18:08:36.590Z,15.49
2022-10-07T18:11:04.791Z,15.46
2022-10-07T18:13:51.040Z,15.39
2022-10-07T18:16:20.434Z,15.23
2022-10-07T18:18:48.684Z,15.11
2022-10-07T18:21:16.496Z,15.15
2022-10-07T18:23:45.552Z,15.15
2022-10-07T18:26:14.456Z,15.14
2022-10-07T18:28:42.507Z,14.98
2022-10-07T18:31:12.175Z,14.97
2022-10-07T18:33:40.615Z,14.88
2022-10-07T18:36:10.168Z,14.62
2022-10-07T18:38:39.291Z,14.42
2022-10-07T18:41:09.879Z,14.73
2022-10-07T18:43:37.941Z,15.01
2022-10-07T18:46:08.812Z,14.93
2022-10-07T18:48:38.237Z,14.95
2022-10-07T18:51:06.816Z,14.96
2022-10-07T18:53:36.598Z,14.91
2022-10-07T18:56:06.333Z,14.92
2022-10-07T18:58:36.184Z,14.76
2022-10-07T19:01:07.033Z,14.69
2022-10-07T19:03:35.785Z,14.69
2022-10-07T19:06:05.900Z,14.66
2022-10-07T19:08:33.926Z,14.53
2022-10-07T19:11:05.727Z,14.63
2022-10-07T19:13:51.880Z,14.54
2022-10-07T19:16:21.347Z,14.66
2022-10-07T19:18:51.940Z,14.50
2022-10-07T19:21:20.426Z,14.50
2022-10-07T19:23:49.067Z,14.36
2022-10-07T19:26:21.332Z,14.22
2022-10-07T19:28:52.015Z,14.20
2022-10-07T19:31:23.188Z,14.11
2022-10-07T19:33:52.284Z,14.19
2022-10-07T19:36:21.047Z,14.33
2022-10-07T19:38:52.415Z,14.14
2022-10-07T19:41:22.032Z,14.22
2022-10-07T19:43:53.268Z,14.20
2022-10-07T19:46:22.539Z,14.32
2022-10-07T19:48:50.912Z,14.38
2022-10-07T19:51:20.383Z,14.32
2022-10-07T19:53:48.407Z,14.23
2022-10-07T19:56:20.183Z,14.26
2022-10-07T19:58:49.262Z,14.22
2022-10-07T20:01:21.033Z,14.14
2022-10-07T20:03:49.375Z,14.07
2022-10-07T20:06:17.361Z,13.88
2022-10-07T20:08:46.677Z,13.91
2022-10-07T20:11:15.394Z,13.90
2022-10-07T20:13:43.283Z,13.81
2022-10-07T20:16:14.074Z,13.81
2022-10-07T20:18:44.053Z,13.73
2022-10-07T20:21:14.092Z,13.67
2022-10-07T20:23:42.911Z,13.62
2022-10-07T20:26:12.408Z,13.63
2022-10-07T20:28:40.470Z,13.62
2022-10-07T20:31:09.810Z,13.48
2022-10-07T20:33:39.920Z,13.48
2022-10-07T20:36:10.112Z,13.47
2022-10-07T20:38:52.473Z,13.42
2022-10-07T20:41:37.681Z,13.58
2022-10-07T20:44:05.402Z,13.59
2022-10-07T20:46:34.040Z,13.55
2022-10-07T20:49:01.967Z,13.59
2022-10-07T20:51:31.101Z,13.59
2022-10-07T20:53:58.876Z,13.59
2022-10-07T20:56:26.618Z,13.56
2022-10-07T20:58:54.380Z,13.48
2022-10-07T21:01:22.199Z,13.46
2022-10-07T21:03:49.969Z,13.49
2022-10-07T21:06:19.063Z,13.37
2022-10-07T21:08:48.215Z,13.39
2022-10-07T21:11:16.405Z,13.45
2022-10-07T21:13:44.123Z,13.14
2022-10-07T21:16:11.854Z,13.31
2022-10-07T21:18:39.617Z,13.23
2022-10-07T21:21:07.796Z,13.10
2022-10-07T21:23:35.527Z,12.86
2022-10-07T21:26:05.738Z,12.91
2022-10-07T21:28:34.027Z,12.99
2022-10-07T21:31:02.812Z,13.23
2022-10-07T21:33:30.739Z,13.26
2022-10-07T21:36:00.531Z,13.28
2022-10-07T21:38:28.304Z,13.42
2022-10-07T21:40:56.084Z,13.64
2022-10-07T21:43:25.177Z,13.84
2022-10-07T21:45:52.958Z,13.87
2022-10-07T21:48:20.923Z,13.75
2022-10-07T21:50:54.884Z,13.76
2022-10-07T21:53:22.939Z,13.56
2022-10-07T21:55:51.163Z,13.65
2022-10-07T21:58:19.906Z,13.65
2022-10-07T22:00:49.342Z,13.64
2022-10-07T22:03:17.130Z,13.64
2022-10-07T22:05:44.882Z,13.58
2022-10-07T22:08:32.507Z,13.62
2022-10-07T22:11:01.437Z,13.57
2022-10-07T22:13:29.563Z,13.45
2022-10-07T22:16:00.873Z,13.43
2022-10-07T22:18:32.404Z,13.34
2022-10-07T22:21:00.827Z,13.27
2022-10-07T22:23:28.628Z,13.19
2022-10-07T22:26:02.141Z,13.17
2022-10-07T22:28:30.066Z,13.23
2022-10-07T22:30:59.776Z,13.15
2022-10-07T22:33:27.552Z,13.14
2022-10-07T22:35:54.313Z,13.15
2022-10-07T22:38:24.265Z,13.09
2022-10-07T22:40:52.094Z,13.03
2022-10-07T22:43:19.800Z,12.92
2022-10-07T22:45:56.968Z,12.99
2022-10-07T22:48:26.938Z,13.03
2022-10-07T22:50:54.666Z,12.91
2022-10-07T22:53:23.029Z,12.95
2022-10-07T22:55:50.773Z,12.86
2022-10-07T22:58:18.562Z,12.84
2022-10-07T23:00:46.381Z,13.01
2022-10-07T23:03:14.204Z,12.93
2022-10-07T23:05:43.402Z,12.93
2022-10-07T23:08:11.221Z,13.01
2022-10-07T23:10:39.326Z,12.94
2022-10-07T23:13:07.135Z,12.91
2022-10-07T23:15:35.346Z,12.90
2022-10-07T23:18:03.157Z,12.82
2022-10-07T23:20:30.899Z,12.79
2022-10-07T23:23:00.015Z,12.82
2022-10-07T23:25:28.507Z,12.98
2022-10-07T23:27:56.242Z,13.04
2022-10-07T23:30:23.964Z,13.05
2022-10-07T23:32:51.805Z,13.05
2022-10-07T23:35:19.553Z,13.04
2022-10-07T23:37:47.264Z,12.98
2022-10-07T23:40:16.520Z,12.92
2022-10-07T23:42:44.440Z,13.00
2022-10-07T23:45:13.290Z,12.97
2022-10-07T23:47:41.088Z,12.93
2022-10-07T23:50:10.116Z,13.06
2022-10-07T23:52:38.299Z,13.28
2022-10-07T23:55:06.940Z,13.37
2022-10-07T23:57:36.058Z,13.41
